createdAt,value
2023-04-04T00:00:54.356Z,5.93
2023-04-04T00:03:22.609Z,4.38
2023-04-04T00:05:51.807Z,4.13
2023-04-04T00:08:19.949Z,2.97
2023-04-04T00:10:48.175Z,4.22
2023-04-04T00:13:17.850Z,3.83
2023-04-04T00:15:46.159Z,5.22
2023-04-04T00:18:14.368Z,3.65
2023-04-04T00:20:42.717Z,3.03
2023-04-04T00:23:11.228Z,4.63
2023-04-04T00:25:39.639Z,4.47
2023-04-04T00:28:07.853Z,3.88
2023-04-04T00:30:38.194Z,3.35
2023-04-04T00:33:06.652Z,4.07
2023-04-04T00:35:34.990Z,4.15
2023-04-04T00:38:03.118Z,3.40
2023-04-04T00:40:31.570Z,3.05
2023-04-04T00:43:00.821Z,3.53
2023-04-04T00:45:29.124Z,3.03
2023-04-04T00:47:59.680Z,2.72
2023-04-04T00:50:27.918Z,4.50
2023-04-04T00:52:56.417Z,3.08
2023-04-04T00:55:24.816Z,3.03
2023-04-04T00:57:53.184Z,2.97
2023-04-04T01:00:22.126Z,2.28
2023-04-04T01:02:50.226Z,2.20
2023-04-04T01:05:19.867Z,2.25
2023-04-04T01:07:48.139Z,1.80
2023-04-04T01:10:16.338Z,2.28
2023-04-04T01:12:44.718Z,1.88
2023-04-04T01:15:13.044Z,1.95
2023-04-04T01:17:42.071Z,1.70
2023-04-04T01:20:14.183Z,1.70
2023-04-04T01:22:48.298Z,2.30
2023-04-04T01:25:17.796Z,2.20
2023-04-04T01:27:47.316Z,2.03
2023-04-04T01:30:17.820Z,2.38
2023-04-04T01:32:51.136Z,2.35
2023-04-04T01:35:27.453Z,2.13
2023-04-04T01:38:09.502Z,2.10
2023-04-04T01:40:40.003Z,1.85
2023-04-04T01:43:10.003Z,1.60
2023-04-04T01:45:38.205Z,3.30
2023-04-04T01:48:06.713Z,2.17
2023-04-04T01:50:34.911Z,2.03
2023-04-04T01:53:03.009Z,2.05
2023-04-04T01:55:31.164Z,1.83
2023-04-04T01:57:59.330Z,1.95
2023-04-04T02:00:28.905Z,1.45
2023-04-04T02:02:57.439Z,2.20
2023-04-04T02:05:25.879Z,1.80
2023-04-04T02:07:54.155Z,2.38
2023-04-04T02:10:22.275Z,1.83
2023-04-04T02:12:50.398Z,2.30
2023-04-04T02:15:19.462Z,2.22
2023-04-04T02:17:50.739Z,1.98
2023-04-04T02:20:19.653Z,2.95
2023-04-04T02:22:54.829Z,2.35
2023-04-04T02:25:24.562Z,2.03
2023-04-04T02:27:52.748Z,2.17
2023-04-04T02:30:20.945Z,2.40
2023-04-04T02:32:50.542Z,2.65
2023-04-04T02:35:18.742Z,2.67
2023-04-04T02:37:48.324Z,2.03
2023-04-04T02:40:16.693Z,2.00
2023-04-04T02:42:45.665Z,2.33
2023-04-04T02:45:14.860Z,2.28
2023-04-04T02:47:43.871Z,2.40
2023-04-04T02:50:13.624Z,3.55
2023-04-04T02:52:41.852Z,3.88
2023-04-04T02:55:11.891Z,3.90
2023-04-04T02:57:40.462Z,2.22
2023-04-04T03:00:10.041Z,2.60
2023-04-04T03:02:38.363Z,3.13
2023-04-04T03:05:07.229Z,2.40
2023-04-04T03:07:36.922Z,2.72
2023-04-04T03:10:05.518Z,3.28
2023-04-04T03:12:33.627Z,2.63
2023-04-04T03:15:01.936Z,3.35
2023-04-04T03:17:30.268Z,3.03
2023-04-04T03:19:58.437Z,2.65
2023-04-04T03:22:26.511Z,2.95
2023-04-04T03:24:56.027Z,3.03
2023-04-04T03:27:24.301Z,2.78
2023-04-04T03:29:52.435Z,2.67
2023-04-04T03:32:20.484Z,2.95
2023-04-04T03:34:48.635Z,2.78
2023-04-04T03:37:16.808Z,3.08
2023-04-04T03:39:45.171Z,3.25
2023-04-04T03:42:14.736Z,3.28
2023-04-04T03:44:43.102Z,3.78
2023-04-04T03:47:11.356Z,4.22
2023-04-04T03:49:39.538Z,3.42
2023-04-04T03:52:07.898Z,3.10
2023-04-04T03:54:36.233Z,2.85
2023-04-04T03:57:05.186Z,3.28
2023-04-04T03:59:34.890Z,2.75
2023-04-04T04:02:02.962Z,3.33
2023-04-04T04:04:31.196Z,3.13
2023-04-04T04:06:59.551Z,3.25
2023-04-04T04:09:27.718Z,4.50
2023-04-04T04:11:55.850Z,2.85
2023-04-04T04:14:23.996Z,3.53
2023-04-04T04:16:53.667Z,3.08
2023-04-04T04:19:21.869Z,3.55
2023-04-04T04:21:49.955Z,3.67
2023-04-04T04:24:18.280Z,3.05
2023-04-04T04:26:46.607Z,3.25
2023-04-04T04:29:14.778Z,3.45
2023-04-04T04:31:42.949Z,3.25
2023-04-04T04:34:12.710Z,3.47
2023-04-04T04:36:41.190Z,3.22
2023-04-04T04:39:09.432Z,4.05
2023-04-04T04:41:38.599Z,4.63
2023-04-04T04:44:07.565Z,4.40
2023-04-04T04:46:35.766Z,4.57
2023-04-04T04:49:04.057Z,3.78
2023-04-04T04:51:33.704Z,4.22
2023-04-04T04:54:01.880Z,4.78
2023-04-04T04:56:30.021Z,4.10
2023-04-04T04:58:58.941Z,4.43
2023-04-04T05:01:27.450Z,4.88
2023-04-04T05:03:55.617Z,4.20
2023-04-04T05:06:23.746Z,5.40
2023-04-04T05:08:53.345Z,4.68
2023-04-04T05:11:21.775Z,3.83
2023-04-04T05:13:50.107Z,3.40
2023-04-04T05:16:20.526Z,3.45
2023-04-04T05:18:49.052Z,3.40
2023-04-04T05:21:17.573Z,3.83
2023-04-04T05:23:45.657Z,4.30
2023-04-04T05:26:15.447Z,4.57
2023-04-04T05:28:43.571Z,3.90
2023-04-04T05:31:11.774Z,3.40
2023-04-04T05:33:39.993Z,3.72
2023-04-04T05:36:08.954Z,4.10
2023-04-04T05:38:37.313Z,3.60
2023-04-04T05:41:05.758Z,4.28
2023-04-04T05:43:35.319Z,4.38
2023-04-04T05:46:03.588Z,3.97
2023-04-04T05:48:31.912Z,4.15
2023-04-04T05:51:00.113Z,4.60
2023-04-04T05:53:28.206Z,4.20
2023-04-04T05:55:56.338Z,3.50
2023-04-04T05:58:24.632Z,3.70
2023-04-04T06:00:54.117Z,3.92
2023-04-04T06:03:22.466Z,3.58
2023-04-04T06:05:53.477Z,3.60
2023-04-04T06:08:21.708Z,4.82
2023-04-04T06:10:49.768Z,3.28
2023-04-04T06:13:17.949Z,2.97
2023-04-04T06:15:46.068Z,3.65
2023-04-04T06:18:16.842Z,3.00
2023-04-04T06:20:44.999Z,2.83
2023-04-04T06:23:13.246Z,3.55
2023-04-04T06:25:41.590Z,3.20
2023-04-04T06:28:11.140Z,3.35
2023-04-04T06:30:39.726Z,3.80
2023-04-04T06:33:08.398Z,2.97
2023-04-04T06:35:37.877Z,3.53
2023-04-04T06:38:06.034Z,3.13
2023-04-04T06:40:34.240Z,3.10
2023-04-04T06:43:02.638Z,3.10
2023-04-04T06:45:33.630Z,2.40
2023-04-04T06:48:02.444Z,3.22
2023-04-04T06:50:32.419Z,2.92
2023-04-04T06:53:02.433Z,4.00
2023-04-04T06:55:30.627Z,3.33
2023-04-04T06:57:58.807Z,3.30
2023-04-04T07:00:27.000Z,3.58
2023-04-04T07:02:59.292Z,3.20
2023-04-04T07:05:27.549Z,3.38
2023-04-04T07:07:57.089Z,4.03
2023-04-04T07:10:27.373Z,4.03
2023-04-04T07:12:55.741Z,3.92
2023-04-04T07:15:23.822Z,3.35
2023-04-04T07:17:52.314Z,4.32
2023-04-04T07:20:20.584Z,4.00
2023-04-04T07:22:50.379Z,4.60
2023-04-04T07:25:18.645Z,3.67
2023-04-04T07:27:48.386Z,3.67
2023-04-04T07:30:17.075Z,4.40
2023-04-04T07:32:45.273Z,3.63
2023-04-04T07:35:13.956Z,4.38
2023-04-04T07:37:42.060Z,3.55
2023-04-04T07:40:11.264Z,3.47
2023-04-04T07:42:45.097Z,4.53
2023-04-04T07:45:15.301Z,3.72
2023-04-04T07:47:45.162Z,3.58
2023-04-04T07:50:13.616Z,3.90
2023-04-04T07:52:42.342Z,4.13
2023-04-04T07:55:10.921Z,4.72
2023-04-04T07:57:40.083Z,4.22
2023-04-04T08:00:10.983Z,4.10
2023-04-04T08:02:40.865Z,4.70
2023-04-04T08:05:10.470Z,3.83
2023-04-04T08:07:38.627Z,3.72
2023-04-04T08:10:08.121Z,3.53
2023-04-04T08:12:36.344Z,3.88
2023-04-04T08:15:04.588Z,4.25
2023-04-04T08:17:32.763Z,3.95
2023-04-04T08:20:02.603Z,4.03
2023-04-04T08:22:30.800Z,3.58
2023-04-04T08:24:58.984Z,4.10
2023-04-04T08:27:27.482Z,3.72
2023-04-04T08:29:55.639Z,3.45
2023-04-04T08:32:23.863Z,3.05
2023-04-04T08:34:52.193Z,3.88
2023-04-04T08:37:22.378Z,3.55
2023-04-04T08:39:50.724Z,3.50
2023-04-04T08:42:20.862Z,3.55
2023-04-04T08:44:53.926Z,3.70
2023-04-04T08:47:25.334Z,4.10
2023-04-04T08:49:56.756Z,4.13
2023-04-04T08:54:57.893Z,4.07
2023-04-04T08:57:26.413Z,3.10
2023-04-04T08:59:55.275Z,2.70
2023-04-04T09:02:30.701Z,2.55
2023-04-04T09:05:06.433Z,3.38
2023-04-04T09:07:39.235Z,2.78
2023-04-04T09:10:11.912Z,2.55
2023-04-04T09:12:43.753Z,2.67
2023-04-04T09:15:13.744Z,2.40
2023-04-04T09:17:42.085Z,2.97
2023-04-04T09:20:35.416Z,2.58
2023-04-04T09:23:07.125Z,4.40
2023-04-04T09:25:35.412Z,3.15
2023-04-04T09:28:05.670Z,3.10
2023-04-04T09:30:35.778Z,3.83
2023-04-04T09:33:06.186Z,3.90
2023-04-04T09:35:36.651Z,3.88
2023-04-04T09:38:07.531Z,3.35
2023-04-04T09:40:37.214Z,3.22
2023-04-04T09:43:08.992Z,1.98
2023-04-04T09:45:40.664Z,2.75
2023-04-04T09:48:09.266Z,3.55
2023-04-04T09:50:39.704Z,2.70
2023-04-04T09:53:09.427Z,2.70
2023-04-04T09:55:38.877Z,2.95
2023-04-04T09:58:14.146Z,3.10
2023-04-04T10:00:47.903Z,3.38
2023-04-04T10:03:17.829Z,2.38
2023-04-04T10:05:46.960Z,2.92
2023-04-04T10:08:18.738Z,2.83
2023-04-04T10:10:58.842Z,2.92
2023-04-04T10:13:37.054Z,2.45
2023-04-04T10:16:06.043Z,2.10
2023-04-04T10:18:36.193Z,2.72
2023-04-04T10:21:15.247Z,3.15
2023-04-04T10:23:47.753Z,3.15
2023-04-04T10:26:16.432Z,2.90
2023-04-04T10:28:45.604Z,2.72
2023-04-04T10:31:19.378Z,2.83
2023-04-04T10:33:53.760Z,2.80
2023-04-04T10:36:24.891Z,3.45
2023-04-04T10:39:04.936Z,3.63
2023-04-04T10:41:34.279Z,2.72
2023-04-04T10:44:10.778Z,2.90
2023-04-04T10:46:44.925Z,3.33
2023-04-04T10:49:13.667Z,3.05
2023-04-04T10:51:54.851Z,2.30
2023-04-04T10:54:27.680Z,3.15
2023-04-04T10:57:00.768Z,2.35
2023-04-04T10:59:29.328Z,1.65
2023-04-04T11:01:59.286Z,1.90
2023-04-04T11:04:33.415Z,2.55
2023-04-04T11:07:12.859Z,2.00
2023-04-04T11:10:02.189Z,2.30
2023-04-04T11:12:33.706Z,2.17
2023-04-04T11:17:57.623Z,2.88
2023-04-04T11:20:30.760Z,2.60
2023-04-04T11:23:07.258Z,3.25
2023-04-04T11:25:41.593Z,2.53
2023-04-04T11:28:14.889Z,3.25
2023-04-04T11:30:51.388Z,2.17
2023-04-04T11:33:29.151Z,2.53
2023-04-04T11:36:01.966Z,2.40
2023-04-04T11:38:30.711Z,2.85
2023-04-04T11:41:00.978Z,2.90
2023-04-04T11:43:29.894Z,1.95
2023-04-04T11:46:09.164Z,3.22
2023-04-04T11:48:38.471Z,2.70
2023-04-04T11:51:08.289Z,2.83
2023-04-04T11:53:36.489Z,2.30
2023-04-04T11:56:06.378Z,2.80
2023-04-04T11:58:37.206Z,2.97
2023-04-04T12:01:06.629Z,3.00
2023-04-04T12:03:36.538Z,3.17
2023-04-04T12:06:05.101Z,3.00
2023-04-04T12:08:33.740Z,2.53
2023-04-04T12:11:10.712Z,3.80
2023-04-04T12:13:44.854Z,2.63
2023-04-04T12:16:13.168Z,2.80
2023-04-04T12:18:41.778Z,3.03
2023-04-04T12:21:09.988Z,2.42
2023-04-04T12:23:38.224Z,2.67
2023-04-04T12:26:09.623Z,3.10
2023-04-04T12:28:39.566Z,3.15
2023-04-04T12:31:08.314Z,3.30
2023-04-04T12:33:38.136Z,2.55
2023-04-04T12:36:08.016Z,2.95
2023-04-04T12:38:41.377Z,2.50
2023-04-04T12:41:19.551Z,3.03
2023-04-04T12:43:48.162Z,3.15
2023-04-04T12:46:16.513Z,2.13
2023-04-04T12:48:45.738Z,2.95
2023-04-04T12:51:16.050Z,4.25
2023-04-04T12:53:53.061Z,4.80
2023-04-04T12:56:27.549Z,2.53
2023-04-04T12:59:03.333Z,2.60
2023-04-04T13:01:32.353Z,2.55
2023-04-04T13:04:04.276Z,2.65
2023-04-04T13:06:33.612Z,3.95
2023-04-04T13:09:01.788Z,3.85
2023-04-04T13:11:57.198Z,2.80
2023-04-04T13:14:25.443Z,2.78
2023-04-04T13:17:04.531Z,2.80
2023-04-04T13:19:32.740Z,3.95
2023-04-04T13:22:03.824Z,2.10
2023-04-04T13:24:31.965Z,2.55
2023-04-04T13:27:01.422Z,2.58
2023-04-04T13:29:29.495Z,3.17
2023-04-04T13:31:57.772Z,2.30
2023-04-04T13:34:26.899Z,3.03
2023-04-04T13:36:56.418Z,2.40
2023-04-04T13:39:25.227Z,2.80
2023-04-04T13:41:53.249Z,2.80
2023-04-04T13:44:23.695Z,2.58
2023-04-04T13:46:52.574Z,2.33
2023-04-04T13:49:20.722Z,2.60
2023-04-04T13:51:49.139Z,2.22
2023-04-04T13:54:17.277Z,2.45
2023-04-04T13:56:46.880Z,2.78
2023-04-04T13:59:15.200Z,3.58
2023-04-04T14:01:44.904Z,3.15
2023-04-04T14:04:22.640Z,2.50
2023-04-04T14:06:51.928Z,3.10
2023-04-04T14:09:20.447Z,2.60
2023-04-04T14:11:48.620Z,2.70
2023-04-04T14:14:17.079Z,2.95
2023-04-04T14:16:47.286Z,2.72
2023-04-04T14:19:15.499Z,2.92
2023-04-04T14:21:43.741Z,3.00
2023-04-04T14:24:11.853Z,2.85
2023-04-04T14:26:39.994Z,3.95
2023-04-04T14:29:08.443Z,3.42
2023-04-04T14:31:36.705Z,3.72
2023-04-04T14:34:06.855Z,4.32
2023-04-04T14:36:35.052Z,2.88
2023-04-04T14:39:03.277Z,3.05
2023-04-04T14:41:31.560Z,3.10
2023-04-04T14:43:59.632Z,3.10
2023-04-04T14:46:27.794Z,3.35
2023-04-04T14:48:55.989Z,3.25
2023-04-04T14:51:25.590Z,2.50
2023-04-04T14:53:53.802Z,3.00
2023-04-04T14:56:23.368Z,3.33
2023-04-04T14:58:52.100Z,2.72
2023-04-04T15:01:22.065Z,2.70
2023-04-04T15:03:50.396Z,3.40
2023-04-04T15:06:18.652Z,2.70
2023-04-04T15:08:48.250Z,2.92
2023-04-04T15:11:16.788Z,2.90
2023-04-04T15:13:45.274Z,2.72
2023-04-04T15:16:13.382Z,2.80
2023-04-04T15:18:41.522Z,2.75
2023-04-04T15:21:09.661Z,4.30
2023-04-04T15:23:37.974Z,4.22
2023-04-04T15:26:07.564Z,5.45
2023-04-04T15:28:35.753Z,5.00
2023-04-04T15:31:04.178Z,5.60
2023-04-04T15:33:32.832Z,7.60
2023-04-04T15:36:01.058Z,4.65
2023-04-04T15:38:29.358Z,7.35
2023-04-04T15:40:57.976Z,2.45
2023-04-04T15:43:27.977Z,1.65
2023-04-04T15:45:56.274Z,1.90
2023-04-04T15:48:24.644Z,2.05
2023-04-04T15:50:52.895Z,1.77
2023-04-04T15:53:21.566Z,2.65
2023-04-04T15:55:49.692Z,2.10
2023-04-04T15:58:17.945Z,1.98
2023-04-04T16:00:48.190Z,1.80
2023-04-04T16:03:16.616Z,1.88
2023-04-04T16:05:44.905Z,1.70
2023-04-04T16:08:14.635Z,1.85
2023-04-04T16:10:44.299Z,1.95
2023-04-04T16:13:12.539Z,2.08
2023-04-04T16:15:40.824Z,2.80
2023-04-04T16:18:10.672Z,2.13
2023-04-04T16:20:39.097Z,1.80
2023-04-04T16:23:07.427Z,1.85
2023-04-04T16:25:35.924Z,1.95
2023-04-04T16:28:03.966Z,2.58
2023-04-04T16:30:32.207Z,2.15
2023-04-04T16:33:00.515Z,2.17
2023-04-04T16:35:30.097Z,2.50
2023-04-04T16:37:58.256Z,1.67
2023-04-04T16:40:26.375Z,2.03
2023-04-04T16:42:54.540Z,2.38
2023-04-04T16:45:22.867Z,1.90
2023-04-04T16:47:51.759Z,1.98
2023-04-04T16:50:20.026Z,2.00
2023-04-04T16:52:49.557Z,2.60
2023-04-04T16:55:17.789Z,2.58
2023-04-04T16:57:46.577Z,2.33
2023-04-04T17:00:15.930Z,1.90
2023-04-04T17:02:46.350Z,2.50
2023-04-04T17:05:14.885Z,2.08
2023-04-04T17:07:43.401Z,2.65
2023-04-04T17:10:14.102Z,1.80
2023-04-04T17:12:42.212Z,2.10
2023-04-04T17:15:11.334Z,1.92
2023-04-04T17:17:39.627Z,2.38
2023-04-04T17:20:08.610Z,2.92
2023-04-04T17:22:38.599Z,2.20
2023-04-04T17:25:07.768Z,2.33
2023-04-04T17:27:37.484Z,2.22
2023-04-04T17:30:06.650Z,3.15
2023-04-04T17:32:35.150Z,2.60
2023-04-04T17:35:03.412Z,2.30
2023-04-04T17:37:32.402Z,2.15
2023-04-04T17:40:01.305Z,2.97
2023-04-04T17:42:29.436Z,2.15
2023-04-04T17:44:59.086Z,2.83
2023-04-04T17:47:27.350Z,1.90
2023-04-04T17:49:57.332Z,2.00
2023-04-04T17:52:25.476Z,2.80
2023-04-04T17:54:54.366Z,2.38
2023-04-04T17:57:22.614Z,3.63
2023-04-04T17:59:51.386Z,3.05
2023-04-04T18:02:21.195Z,6.97
2023-04-04T18:04:49.369Z,6.63
2023-04-04T18:07:19.153Z,4.57
2023-04-04T18:09:47.660Z,2.75
2023-04-04T18:12:16.038Z,3.03
2023-04-04T18:14:44.188Z,3.38
2023-04-04T18:17:12.859Z,2.58
2023-04-04T18:19:42.751Z,2.50
2023-04-04T18:22:10.929Z,2.25
2023-04-04T18:24:39.158Z,2.63
2023-04-04T18:27:09.179Z,2.10
2023-04-04T18:29:37.441Z,2.22
2023-04-04T18:32:05.785Z,2.70
2023-04-04T18:34:34.005Z,2.38
2023-04-04T18:37:03.500Z,2.42
2023-04-04T18:39:31.931Z,2.80
2023-04-04T18:42:00.183Z,2.45
2023-04-04T18:44:28.340Z,2.40
2023-04-04T18:46:58.400Z,2.13
2023-04-04T18:49:27.267Z,2.38
2023-04-04T18:51:55.578Z,2.67
2023-04-04T18:54:27.234Z,2.72
2023-04-04T18:56:56.854Z,3.20
2023-04-04T18:59:25.535Z,2.80
2023-04-04T19:01:54.210Z,2.47
2023-04-04T19:04:22.674Z,2.63
2023-04-04T19:06:51.515Z,2.40
2023-04-04T19:09:21.399Z,1.98
2023-04-04T19:11:54.638Z,1.80
2023-04-04T19:14:22.895Z,2.40
2023-04-04T19:16:51.449Z,3.25
2023-04-04T19:19:21.624Z,2.58
2023-04-04T19:21:49.833Z,3.92
2023-04-04T19:24:18.052Z,3.08
2023-04-04T19:26:47.191Z,3.03
2023-04-04T19:29:22.405Z,2.00
2023-04-04T19:31:50.713Z,3.03
2023-04-04T19:34:20.627Z,3.17
2023-04-04T19:36:48.878Z,4.65
2023-04-04T19:39:20.784Z,3.55
2023-04-04T19:41:48.938Z,3.28
2023-04-04T19:44:21.235Z,3.17
2023-04-04T19:46:49.913Z,3.20
2023-04-04T19:49:19.387Z,4.03
2023-04-04T19:51:51.908Z,3.38
2023-04-04T19:54:25.956Z,3.40
2023-04-04T19:57:00.161Z,3.00
2023-04-04T19:59:59.140Z,4.50
2023-04-04T20:02:57.016Z,4.35
2023-04-04T20:05:57.729Z,4.60
2023-04-04T20:08:36.063Z,4.18
2023-04-04T20:11:05.761Z,4.43
2023-04-04T20:13:36.161Z,4.30
2023-04-04T20:16:08.080Z,5.85
2023-04-04T20:18:37.971Z,5.13
2023-04-04T20:21:08.815Z,5.25
2023-04-04T20:23:45.626Z,5.43
2023-04-04T20:26:16.313Z,5.50
2023-04-04T20:28:47.933Z,6.25
2023-04-04T20:31:19.762Z,6.30
2023-04-04T20:33:48.559Z,7.13
2023-04-04T20:36:33.155Z,6.10
2023-04-04T20:39:01.661Z,7.22
2023-04-04T20:41:29.900Z,6.38
2023-04-04T20:43:59.902Z,5.97
2023-04-04T20:46:32.934Z,6.80
2023-04-04T20:49:01.307Z,6.78
2023-04-04T20:51:31.077Z,7.18
2023-04-04T20:54:01.065Z,6.97
2023-04-04T20:56:55.388Z,7.43
2023-04-04T20:59:38.435Z,6.95
2023-04-04T21:02:13.645Z,6.85
2023-04-04T21:04:44.011Z,6.75
2023-04-04T21:07:36.176Z,7.35
2023-04-04T21:10:21.620Z,6.65
2023-04-04T21:12:49.816Z,7.50
2023-04-04T21:15:28.737Z,7.40
2023-04-04T21:18:00.260Z,6.75
2023-04-04T21:23:34.395Z,7.38
2023-04-04T21:26:04.221Z,7.25
2023-04-04T21:28:36.270Z,6.70
2023-04-04T21:31:14.309Z,6.78
2023-04-04T21:33:44.976Z,8.38
2023-04-04T21:36:26.399Z,7.23
2023-04-04T21:38:55.693Z,7.13
2023-04-04T21:41:26.339Z,6.70
2023-04-04T21:43:55.704Z,5.30
2023-04-04T21:46:25.723Z,6.22
2023-04-04T21:48:56.078Z,5.43
2023-04-04T21:51:24.176Z,5.22
2023-04-04T21:53:52.527Z,6.20
2023-04-04T21:56:21.300Z,4.70
2023-04-04T21:58:49.851Z,5.32
2023-04-04T22:01:18.034Z,5.63
2023-04-04T22:03:46.261Z,4.70
2023-04-04T22:06:15.844Z,3.97
2023-04-04T22:08:44.342Z,3.97
2023-04-04T22:11:14.457Z,4.53
2023-04-04T22:13:47.169Z,4.60
2023-04-04T22:16:17.133Z,5.28
2023-04-04T22:18:47.975Z,4.45
2023-04-04T22:21:17.712Z,5.18
2023-04-04T22:23:45.988Z,4.30
2023-04-04T22:26:20.428Z,5.20
2023-04-04T22:28:50.275Z,4.53
2023-04-04T22:31:18.354Z,4.47
2023-04-04T22:33:46.811Z,4.55
2023-04-04T22:36:16.206Z,3.65
2023-04-04T22:38:45.734Z,3.40
2023-04-04T22:41:13.831Z,3.72
2023-04-04T22:43:41.932Z,3.45
2023-04-04T22:46:10.062Z,4.05
2023-04-04T22:48:41.505Z,3.42
2023-04-04T22:51:10.052Z,3.67
2023-04-04T22:53:38.246Z,2.90
2023-04-04T22:56:08.553Z,3.58
2023-04-04T22:58:36.676Z,4.28
2023-04-04T23:01:04.972Z,4.10
2023-04-04T23:03:33.403Z,3.60
2023-04-04T23:06:01.617Z,3.80
2023-04-04T23:08:29.788Z,3.80
2023-04-04T23:10:57.885Z,3.00
2023-04-04T23:13:27.445Z,2.95
2023-04-04T23:15:55.807Z,2.25
2023-04-04T23:18:24.409Z,2.58
2023-04-04T23:20:53.170Z,2.17
2023-04-04T23:23:21.595Z,1.80
2023-04-04T23:25:49.788Z,2.13
2023-04-04T23:28:18.521Z,1.23
2023-04-04T23:30:48.146Z,1.23
2023-04-04T23:33:16.690Z,1.42
2023-04-04T23:35:44.952Z,1.65
2023-04-04T23:38:13.600Z,1.80
2023-04-04T23:40:42.020Z,1.42
2023-04-04T23:43:10.353Z,1.40
2023-04-04T23:45:41.361Z,1.45
2023-04-04T23:48:11.308Z,1.67
2023-04-04T23:50:41.589Z,2.47
2023-04-04T23:53:09.884Z,1.70
2023-04-04T23:55:38.038Z,1.40
2023-04-04T23:58:06.507Z,1.95
